Time;durP1;ratioP1;P1;durP2;ratioP2;P2;SDS_P1;SDS_P2;PMS_P1;PMS_P2;Temp;Humidity;BMP_temperature;BMP_pressure;BME280_temperature;BME280_humidity;BME280_pressure;Samples;Min_cycle;Max_cycle;Signal;HPM_P1;HPM_P2
2023/04/06 00:01:17;;;;;;;1999.90;999.90;;;24.90;99.90;;;;;;5025040;28;20056;-69
2023/04/06 00:03:44;;;;;;;1999.90;999.90;;;25.00;99.90;;;;;;5019912;28;20835;-69
2023/04/06 00:06:12;;;;;;;1999.90;999.90;;;25.40;99.90;;;;;;5021936;28;20041;-70
2023/04/06 00:08:41;;;;;;;1999.90;999.90;;;25.70;99.90;;;;;;5024739;28;20033;-70
2023/04/06 00:11:08;;;;;;;1999.90;999.90;;;26.00;99.90;;;;;;5024793;28;20124;-71
2023/04/06 00:13:36;;;;;;;1999.90;999.90;;;26.20;99.90;;;;;;5018976;28;20028;-70
2023/04/06 00:16:05;;;;;;;1999.90;999.90;;;26.50;99.90;;;;;;5027010;28;20039;-69
2023/04/06 00:18:32;;;;;;;1999.90;999.90;;;26.90;99.90;;;;;;5017503;28;20044;-70
2023/04/06 00:21:00;;;;;;;1999.90;999.90;;;27.10;99.90;;;;;;5027840;28;20048;-70
2023/04/06 00:23:27;;;;;;;1999.90;999.90;;;27.20;99.90;;;;;;5025925;28;20472;-69
2023/04/06 00:25:55;;;;;;;1999.90;999.90;;;27.30;99.90;;;;;;5032765;28;20037;-69
2023/04/06 00:28:25;;;;;;;1999.90;999.90;;;27.40;99.90;;;;;;5021539;28;20141;-69
2023/04/06 00:30:56;;;;;;;1999.90;999.90;;;27.70;99.90;;;;;;5021249;28;20022;-70
2023/04/06 00:33:24;;;;;;;1999.90;999.90;;;28.00;99.90;;;;;;5024219;28;20112;-70
2023/04/06 00:35:51;;;;;;;1999.90;999.90;;;28.40;99.90;;;;;;5028988;28;21327;-70
2023/04/06 00:38:19;;;;;;;1999.90;999.90;;;28.80;99.90;;;;;;5026948;28;20031;-70
2023/04/06 00:40:47;;;;;;;1999.90;999.90;;;28.80;99.70;;;;;;5044761;28;20134;-70
2023/04/06 00:43:14;;;;;;;1999.90;999.90;;;28.70;99.90;;;;;;5026693;28;20032;-70
2023/04/06 00:45:42;;;;;;;1999.90;999.90;;;28.80;99.90;;;;;;5025109;28;20554;-70
2023/04/06 00:48:10;;;;;;;1999.90;999.90;;;29.00;99.90;;;;;;5021374;28;20057;-70
2023/04/06 00:50:37;;;;;;;1999.90;999.90;;;29.20;99.90;;;;;;5025248;28;20727;-69
2023/04/06 00:53:05;;;;;;;1999.90;999.90;;;29.00;99.90;;;;;;5028156;28;20060;-68
2023/04/06 00:55:35;;;;;;;1999.90;999.90;;;28.80;98.80;;;;;;5028250;28;21031;-69
2023/04/06 00:58:03;;;;;;;1999.90;999.90;;;28.50;99.80;;;;;;5026453;28;20045;-69
2023/04/06 01:00:34;;;;;;;1999.90;999.90;;;28.10;99.90;;;;;;5029857;28;20037;-69
2023/04/06 01:03:01;;;;;;;1999.90;999.90;;;27.70;99.30;;;;;;5030389;28;20037;-69
2023/04/06 01:05:29;;;;;;;1999.90;999.90;;;27.20;99.90;;;;;;5027300;28;20030;-69
2023/04/06 01:07:56;;;;;;;1999.90;999.90;;;26.70;99.90;;;;;;5021802;28;20127;-70
2023/04/06 01:10:28;;;;;;;1999.90;999.90;;;26.30;99.90;;;;;;5025645;28;20492;-70
2023/04/06 01:12:55;;;;;;;1999.90;999.90;;;26.00;99.90;;;;;;5027735;28;20037;-71
2023/04/06 01:15:24;;;;;;;1999.90;999.90;;;25.70;99.90;;;;;;5036619;28;20030;-70
2023/04/06 01:17:51;;;;;;;1999.90;999.90;;;25.30;99.90;;;;;;5027942;28;20776;-69
2023/04/06 01:20:19;;;;;;;1999.90;999.90;;;25.10;99.90;;;;;;5033428;28;20041;-68
2023/04/06 01:22:46;;;;;;;1999.90;999.90;;;24.90;99.90;;;;;;5028096;28;20067;-68
2023/04/06 01:25:14;;;;;;;1999.90;999.90;;;24.50;99.90;;;;;;5028363;28;20537;-67
2023/04/06 01:27:42;;;;;;;1999.90;999.90;;;23.80;99.90;;;;;;5023907;28;20400;-69
2023/04/06 01:30:10;;;;;;;1999.90;999.90;;;23.20;99.90;;;;;;5027071;28;20428;-69
2023/04/06 01:32:37;;;;;;;1999.90;999.90;;;22.70;99.90;;;;;;5031234;28;20064;-69
2023/04/06 01:35:06;;;;;;;1999.90;999.90;;;22.40;99.90;;;;;;5033382;28;20388;-69
2023/04/06 01:37:33;;;;;;;1999.90;999.90;;;22.10;99.90;;;;;;5018157;28;20025;-70
2023/04/06 01:40:01;;;;;;;1999.90;999.90;;;21.80;99.90;;;;;;5028777;28;20068;-69
2023/04/06 01:42:30;;;;;;;1999.90;999.90;;;21.60;99.90;;;;;;5031064;28;20120;-68
2023/04/06 01:44:57;;;;;;;1999.90;999.90;;;21.40;99.90;;;;;;5031922;28;20076;-69
2023/04/06 01:47:25;;;;;;;1999.90;999.90;;;21.00;99.90;;;;;;5017406;28;20467;-68
2023/04/06 01:49:52;;;;;;;1999.90;999.90;;;20.60;99.90;;;;;;5029050;28;20021;-68
2023/04/06 01:52:20;;;;;;;1999.90;999.90;;;20.20;99.90;;;;;;5028802;28;20033;-70
2023/04/06 01:54:48;;;;;;;1999.90;999.90;;;19.90;99.90;;;;;;5021017;28;20045;-67
2023/04/06 01:57:15;;;;;;;1999.90;999.90;;;19.60;99.90;;;;;;5024148;28;20485;-69
2023/04/06 01:59:42;;;;;;;1999.90;999.90;;;19.40;99.90;;;;;;5027473;28;20511;-69
2023/04/06 02:02:10;;;;;;;1999.90;999.90;;;19.20;99.90;;;;;;5031466;28;20068;-70
2023/04/06 02:04:37;;;;;;;1999.90;999.90;;;19.00;99.90;;;;;;5020183;28;20068;-69
2023/04/06 02:07:04;;;;;;;1999.90;999.90;;;18.80;99.90;;;;;;5027923;28;20041;-68
2023/04/06 02:09:32;;;;;;;1999.90;999.90;;;18.70;99.90;;;;;;5030068;28;21176;-68
2023/04/06 02:12:01;;;;;;;1999.90;999.90;;;18.60;99.90;;;;;;5030443;28;20064;-68
2023/04/06 02:14:28;;;;;;;1999.90;999.90;;;18.50;99.90;;;;;;5028221;28;20115;-68
2023/04/06 02:16:55;;;;;;;1999.90;999.90;;;18.50;99.90;;;;;;5030465;28;20029;-68
2023/04/06 02:19:23;;;;;;;1999.90;999.90;;;18.60;99.90;;;;;;5025231;28;20100;-68
2023/04/06 02:21:50;;;;;;;1999.90;999.90;;;18.60;99.90;;;;;;5026538;28;20094;-68
2023/04/06 02:24:18;;;;;;;1999.90;999.90;;;18.60;99.90;;;;;;5025174;28;20029;-68
2023/04/06 02:26:45;;;;;;;1999.90;999.90;;;18.70;99.90;;;;;;5029425;28;20151;-67
2023/04/06 02:29:12;;;;;;;1999.90;999.90;;;18.80;99.90;;;;;;5034831;28;20120;-66
2023/04/06 02:31:40;;;;;;;1999.90;999.90;;;18.90;99.90;;;;;;5031891;28;20031;-68
2023/04/06 02:34:10;;;;;;;1999.90;999.90;;;19.10;99.90;;;;;;5023304;28;20831;-67
2023/04/06 02:36:38;;;;;;;1999.90;999.90;;;19.20;99.90;;;;;;5024561;28;20041;-69
2023/04/06 02:39:05;;;;;;;1999.90;999.90;;;19.30;99.90;;;;;;5030982;28;20021;-67
2023/04/06 02:41:32;;;;;;;1999.90;999.90;;;19.40;99.90;;;;;;5027258;28;20419;-67
2023/04/06 02:44:00;;;;;;;1999.90;999.90;;;19.60;99.90;;;;;;5021573;28;20037;-66
2023/04/06 02:46:27;;;;;;;1999.90;999.90;;;19.80;99.90;;;;;;5026455;28;20049;-66
2023/04/06 02:48:54;;;;;;;1999.90;999.90;;;19.90;99.90;;;;;;5024268;28;20040;-67
2023/04/06 02:51:22;;;;;;;1999.90;999.90;;;20.10;99.90;;;;;;5021274;28;20022;-67
2023/04/06 02:53:49;;;;;;;1999.90;999.90;;;20.20;99.90;;;;;;5026497;28;20347;-66
2023/04/06 02:56:16;;;;;;;1999.90;999.90;;;20.30;99.90;;;;;;5026797;28;20026;-69
2023/04/06 02:58:44;;;;;;;1999.90;999.90;;;20.40;99.90;;;;;;5023334;28;20048;-68
2023/04/06 03:01:12;;;;;;;1999.90;999.90;;;20.40;99.90;;;;;;5028313;28;20044;-69
2023/04/06 03:03:39;;;;;;;1999.90;999.90;;;20.50;99.90;;;;;;5025505;28;20033;-68
2023/04/06 03:06:07;;;;;;;1999.90;999.90;;;20.60;99.90;;;;;;5032167;28;20041;-71
2023/04/06 03:08:34;;;;;;;1999.90;999.90;;;20.70;99.90;;;;;;5026512;28;20025;-68
2023/04/06 03:11:01;;;;;;;1999.90;999.90;;;20.80;99.90;;;;;;5021546;28;20594;-68
2023/04/06 03:13:29;;;;;;;1999.90;999.90;;;20.90;99.90;;;;;;5024275;28;20060;-69
2023/04/06 03:15:56;;;;;;;1999.90;999.90;;;21.10;99.90;;;;;;5031301;28;20112;-69
2023/04/06 03:18:25;;;;;;;1999.90;999.90;;;21.10;99.90;;;;;;5024929;28;20075;-68
2023/04/06 03:20:56;;;;;;;1999.90;999.90;;;21.20;99.90;;;;;;5025299;28;20064;-68
2023/04/06 03:23:23;;;;;;;1999.90;999.90;;;21.30;99.90;;;;;;5020637;28;20149;-68
2023/04/06 03:25:50;;;;;;;1999.90;999.90;;;21.40;99.90;;;;;;5025873;28;20033;-68
2023/04/06 03:28:18;;;;;;;1999.90;999.90;;;21.40;99.90;;;;;;5026769;28;20017;-68
2023/04/06 03:30:46;;;;;;;1999.90;999.90;;;21.40;99.90;;;;;;5029158;28;20102;-67
2023/04/06 03:33:13;;;;;;;1999.90;999.90;;;21.50;99.90;;;;;;5027014;28;20036;-69
2023/04/06 03:35:41;;;;;;;1999.90;999.90;;;21.50;99.90;;;;;;5032251;28;20029;-67
2023/04/06 03:38:08;;;;;;;1999.90;999.90;;;21.60;99.90;;;;;;5019687;28;20059;-68
2023/04/06 03:40:35;;;;;;;1999.90;999.90;;;21.60;99.90;;;;;;5028631;28;20041;-68
2023/04/06 03:43:04;;;;;;;1999.90;999.90;;;21.60;99.90;;;;;;5017403;28;20499;-69
2023/04/06 03:45:31;;;;;;;1999.90;999.90;;;21.70;99.90;;;;;;5018161;28;20694;-68
2023/04/06 03:47:58;;;;;;;1999.90;999.90;;;21.70;99.90;;;;;;5023626;28;20045;-68
2023/04/06 03:50:26;;;;;;;1999.90;999.90;;;21.80;99.90;;;;;;5029237;28;20555;-67
2023/04/06 03:52:53;;;;;;;1999.90;999.90;;;21.90;99.90;;;;;;5025236;28;20029;-69
2023/04/06 03:55:20;;;;;;;1999.90;999.90;;;22.00;99.90;;;;;;5029341;28;20029;-68
2023/04/06 03:57:48;;;;;;;1999.90;999.90;;;22.10;99.90;;;;;;5030103;28;20489;-67
2023/04/06 04:00:15;;;;;;;1999.90;999.90;;;22.30;99.90;;;;;;5024910;28;20048;-68
2023/04/06 04:02:43;;;;;;;1999.90;999.90;;;22.40;99.90;;;;;;5027869;28;20534;-67
2023/04/06 04:05:10;;;;;;;1999.90;999.90;;;22.50;99.90;;;;;;5030899;28;20037;-66
2023/04/06 04:07:37;;;;;;;1999.90;999.90;;;22.70;99.90;;;;;;5026849;28;20037;-67
2023/04/06 04:10:05;;;;;;;1999.90;999.90;;;22.70;99.90;;;;;;5031581;28;20021;-66
2023/04/06 04:12:32;;;;;;;1999.90;999.90;;;22.80;99.90;;;;;;5025511;28;20408;-67
2023/04/06 04:15:00;;;;;;;1999.90;999.90;;;23.00;99.90;;;;;;5035212;28;20033;-67
2023/04/06 04:17:27;;;;;;;1999.90;999.90;;;23.20;99.90;;;;;;5025338;28;20029;-66
2023/04/06 04:19:54;;;;;;;1999.90;999.90;;;23.40;99.90;;;;;;5033496;28;20021;-68
2023/04/06 04:22:22;;;;;;;1999.90;999.90;;;23.50;99.90;;;;;;5020492;28;20037;-68
2023/04/06 04:24:49;;;;;;;1999.90;999.90;;;23.60;99.90;;;;;;5031648;28;20413;-67
2023/04/06 04:27:16;;;;;;;1999.90;999.90;;;23.60;99.90;;;;;;5026574;28;20087;-66
2023/04/06 04:29:44;;;;;;;1999.90;999.90;;;23.60;99.90;;;;;;5029065;28;20080;-67
2023/04/06 04:32:11;;;;;;;1999.90;999.90;;;23.50;99.90;;;;;;5021466;28;20056;-68
2023/04/06 04:34:41;;;;;;;1999.90;999.90;;;23.50;99.90;;;;;;5019242;28;20472;-68
2023/04/06 04:37:09;;;;;;;1999.90;999.90;;;23.40;99.90;;;;;;5020539;28;20014;-67
2023/04/06 04:39:36;;;;;;;1999.90;999.90;;;23.40;99.90;;;;;;5020368;28;20025;-68
2023/04/06 04:42:03;;;;;;;1999.90;999.90;;;23.30;99.90;;;;;;5020617;28;20041;-66
2023/04/06 04:44:31;;;;;;;1999.90;999.90;;;23.30;99.90;;;;;;5023342;28;20112;-67
2023/04/06 04:46:58;;;;;;;1999.90;999.90;;;23.20;99.90;;;;;;5017895;28;20361;-66
2023/04/06 04:49:25;;;;;;;1999.90;999.90;;;23.10;99.90;;;;;;5028988;28;20052;-67
2023/04/06 04:51:52;;;;;;;1999.90;999.90;;;23.00;99.90;;;;;;5029354;28;20041;-68
2023/04/06 04:54:20;;;;;;;1999.90;999.90;;;22.90;99.90;;;;;;5025013;28;20051;-67
2023/04/06 04:56:47;;;;;;;1999.90;999.90;;;22.80;99.90;;;;;;5020479;28;20091;-69
2023/04/06 04:59:15;;;;;;;1999.90;999.90;;;22.70;99.90;;;;;;5025616;28;20029;-67
2023/04/06 05:01:42;;;;;;;1999.90;999.90;;;22.60;99.90;;;;;;5021054;28;20044;-67
2023/04/06 05:04:09;;;;;;;1999.90;999.90;;;22.60;99.90;;;;;;5013923;28;20049;-67
2023/04/06 05:06:37;;;;;;;1999.90;999.90;;;22.60;99.90;;;;;;5019560;28;20159;-68
2023/04/06 05:09:04;;;;;;;1999.90;999.90;;;22.50;99.90;;;;;;5016590;28;20209;-69
2023/04/06 05:11:31;;;;;;;1999.90;999.90;;;22.50;99.90;;;;;;5022813;28;20033;-67
2023/04/06 05:13:59;;;;;;;1999.90;999.90;;;22.40;99.90;;;;;;5027282;28;20025;-67
2023/04/06 05:16:26;;;;;;;1999.90;999.90;;;22.40;99.90;;;;;;5028246;28;20040;-67
2023/04/06 05:18:56;;;;;;;1999.90;999.90;;;22.40;99.90;;;;;;5027807;28;20056;-67
2023/04/06 05:21:24;;;;;;;1999.90;999.90;;;22.30;99.90;;;;;;5027457;28;20044;-68
2023/04/06 05:23:51;;;;;;;1999.90;999.90;;;22.20;99.90;;;;;;5028560;28;20025;-67
2023/04/06 05:26:19;;;;;;;1999.90;999.90;;;22.20;99.90;;;;;;5028806;28;20021;-68
2023/04/06 05:28:46;;;;;;;1999.90;999.90;;;22.20;99.90;;;;;;5021856;28;20120;-68
2023/04/06 05:31:14;;;;;;;1999.90;999.90;;;22.20;99.90;;;;;;5027787;28;20052;-68
2023/04/06 05:33:42;;;;;;;1999.90;999.90;;;22.10;99.90;;;;;;5028653;28;20037;-69
2023/04/06 05:36:09;;;;;;;1999.90;999.90;;;22.10;99.90;;;;;;5032664;28;20086;-68
2023/04/06 05:38:37;;;;;;;1999.90;999.90;;;22.10;99.90;;;;;;5032358;28;20987;-69
2023/04/06 05:41:04;;;;;;;1999.90;999.90;;;22.10;99.90;;;;;;5039141;28;20041;-68
2023/04/06 05:43:31;;;;;;;1999.90;999.90;;;22.10;99.90;;;;;;5031324;28;20040;-68
2023/04/06 05:45:59;;;;;;;1999.90;999.90;;;22.10;99.90;;;;;;5022210;28;20025;-68
2023/04/06 05:48:26;;;;;;;1999.90;999.90;;;22.20;99.90;;;;;;5021574;28;20033;-67
2023/04/06 05:50:54;;;;;;;1999.90;999.90;;;22.20;99.90;;;;;;5033504;28;20022;-67
2023/04/06 05:53:21;;;;;;;1999.90;999.90;;;22.10;99.90;;;;;;5031363;28;20017;-68
2023/04/06 05:55:48;;;;;;;1999.90;999.90;;;22.20;99.90;;;;;;5028172;28;20037;-69
2023/04/06 05:58:17;;;;;;;1999.90;999.90;;;22.10;99.90;;;;;;5021088;28;20021;-69
2023/04/06 06:00:45;;;;;;;1999.90;999.90;;;22.10;99.90;;;;;;5029426;28;20017;-67
2023/04/06 06:03:14;;;;;;;1999.90;999.90;;;22.10;99.90;;;;;;5029128;28;20029;-67
2023/04/06 06:05:42;;;;;;;1999.90;999.90;;;22.10;99.90;;;;;;5034993;28;20125;-68
2023/04/06 06:08:10;;;;;;;1999.90;999.90;;;22.10;99.90;;;;;;5029900;28;20021;-69
2023/04/06 06:10:40;;;;;;;1999.90;999.90;;;22.10;99.90;;;;;;5025260;28;20507;-68
2023/04/06 06:13:07;;;;;;;1999.90;999.90;;;22.10;99.90;;;;;;5031667;28;20037;-68
2023/04/06 06:15:35;;;;;;;1999.90;999.90;;;22.00;99.90;;;;;;5028759;28;20022;-69
2023/04/06 06:18:02;;;;;;;1999.90;999.90;;;22.00;99.90;;;;;;5032784;28;20029;-69
2023/04/06 06:20:29;;;;;;;1999.90;999.90;;;21.90;99.90;;;;;;5035781;28;20122;-68
2023/04/06 06:22:57;;;;;;;1999.90;999.90;;;21.90;99.90;;;;;;5031114;28;20036;-67
2023/04/06 06:25:24;;;;;;;1999.90;999.90;;;21.80;99.90;;;;;;5036382;28;20063;-69
2023/04/06 06:27:51;;;;;;;1999.90;999.90;;;21.70;99.90;;;;;;5032053;28;20275;-70
2023/04/06 06:30:19;;;;;;;1999.90;999.90;;;21.70;99.90;;;;;;5032681;28;20409;-69
2023/04/06 06:32:46;;;;;;;1999.90;999.90;;;21.60;99.90;;;;;;5022416;28;20025;-69
2023/04/06 06:35:14;;;;;;;1999.90;999.90;;;21.60;99.90;;;;;;5032367;28;20021;-68
2023/04/06 06:37:41;;;;;;;1999.90;999.90;;;21.60;99.90;;;;;;5030629;28;20119;-68
2023/04/06 06:40:10;;;;;;;1999.90;999.90;;;21.50;99.90;;;;;;5030222;28;20041;-68
2023/04/06 06:42:37;;;;;;;1999.90;999.90;;;21.50;99.90;;;;;;5024131;28;20029;-69
2023/04/06 06:45:07;;;;;;;1999.90;999.90;;;21.50;99.90;;;;;;5026246;28;20108;-70
2023/04/06 06:47:35;;;;;;;1999.90;999.90;;;21.40;99.90;;;;;;5026667;28;20049;-69
2023/04/06 06:50:03;;;;;;;1999.90;999.90;;;21.40;99.90;;;;;;5029614;28;20029;-68
2023/04/06 06:52:30;;;;;;;1999.90;999.90;;;21.40;99.90;;;;;;5031093;28;20091;-69
2023/04/06 06:54:57;;;;;;;1999.90;999.90;;;21.40;99.90;;;;;;5033759;28;20074;-69
2023/04/06 06:57:26;;;;;;;1999.90;999.90;;;21.40;99.90;;;;;;5030003;28;20029;-69
2023/04/06 06:59:53;;;;;;;1999.90;999.90;;;21.40;99.90;;;;;;5025596;28;20021;-68
2023/04/06 07:02:21;;;;;;;1999.90;999.90;;;21.40;99.90;;;;;;5028726;28;20568;-69
2023/04/06 07:04:51;;;;;;;1999.90;999.90;;;21.30;99.90;;;;;;5032160;28;20070;-69
2023/04/06 07:07:18;;;;;;;1999.90;999.90;;;21.30;99.90;;;;;;5029515;28;20472;-68
2023/04/06 07:09:46;;;;;;;1999.90;999.90;;;21.30;99.90;;;;;;5033347;28;20387;-69
2023/04/06 07:12:13;;;;;;;1999.90;999.90;;;21.20;99.90;;;;;;5031721;28;20427;-69
2023/04/06 07:14:41;;;;;;;1999.90;999.90;;;21.20;99.90;;;;;;5031538;28;20121;-68
2023/04/06 07:17:10;;;;;;;1999.90;999.90;;;21.10;99.90;;;;;;5029343;28;20029;-68
2023/04/06 07:19:37;;;;;;;1999.90;999.90;;;21.10;99.90;;;;;;5036854;28;20036;-69
2023/04/06 07:22:04;;;;;;;1999.90;999.90;;;21.00;99.90;;;;;;5032616;28;20029;-69
2023/04/06 07:24:32;;;;;;;1999.90;999.90;;;21.00;99.90;;;;;;5038585;28;20060;-69
2023/04/06 07:27:02;;;;;;;1999.90;999.90;;;21.00;99.90;;;;;;5035867;28;20029;-69
2023/04/06 07:29:30;;;;;;;1999.90;999.90;;;20.80;99.90;;;;;;5033688;28;20108;-69
2023/04/06 07:31:57;;;;;;;1999.90;999.90;;;20.80;99.90;;;;;;5024459;28;20095;-69
2023/04/06 07:34:24;;;;;;;1999.90;999.90;;;20.70;99.90;;;;;;5031793;28;20061;-68
2023/04/06 07:36:53;;;;;;;1999.90;999.90;;;20.60;99.90;;;;;;5032076;28;20539;-68
2023/04/06 07:39:21;;;;;;;1999.90;999.90;;;20.50;99.90;;;;;;5038873;28;20032;-69
2023/04/06 07:41:48;;;;;;;1999.90;999.90;;;20.50;99.90;;;;;;5032600;28;20079;-68
2023/04/06 07:44:16;;;;;;;1999.90;999.90;;;20.40;99.90;;;;;;5034199;28;20508;-69
2023/04/06 07:46:43;;;;;;;1999.90;999.90;;;20.30;99.90;;;;;;5034211;28;20175;-67
2023/04/06 07:49:10;;;;;;;1999.90;999.90;;;20.30;99.90;;;;;;5036605;28;20387;-68
2023/04/06 07:51:39;;;;;;;1999.90;999.90;;;20.20;99.90;;;;;;5034761;28;20025;-69
2023/04/06 07:54:07;;;;;;;1999.90;999.90;;;20.20;99.90;;;;;;5034605;28;20104;-68
2023/04/06 07:56:34;;;;;;;1999.90;999.90;;;20.20;99.90;;;;;;5035610;28;20040;-67
2023/04/06 07:59:02;;;;;;;1999.90;999.90;;;20.10;99.90;;;;;;5027819;28;20033;-68
2023/04/06 08:01:30;;;;;;;1999.90;999.90;;;20.00;99.90;;;;;;5029948;28;20046;-68
2023/04/06 08:03:58;;;;;;;1999.90;999.90;;;20.00;99.90;;;;;;5032325;28;20022;-68
2023/04/06 08:06:26;;;;;;;1999.90;999.90;;;20.00;99.90;;;;;;5029274;28;20475;-68
2023/04/06 08:08:54;;;;;;;1999.90;999.90;;;20.10;99.90;;;;;;5037399;28;20040;-68
2023/04/06 08:11:21;;;;;;;1999.90;999.90;;;20.00;99.90;;;;;;5032148;28;20079;-69
2023/04/06 08:13:48;;;;;;;1999.90;999.90;;;20.00;99.90;;;;;;5031266;28;20100;-69
2023/04/06 08:16:16;;;;;;;1999.90;999.90;;;20.00;99.90;;;;;;5039032;28;20112;-69
2023/04/06 08:18:43;;;;;;;1999.90;999.90;;;19.90;99.90;;;;;;5029423;28;20029;-69
2023/04/06 08:21:11;;;;;;;1999.90;999.90;;;19.90;99.90;;;;;;5031055;28;20492;-69
2023/04/06 08:23:39;;;;;;;1999.90;999.90;;;19.90;99.90;;;;;;5027811;28;20535;-67
2023/04/06 08:26:06;;;;;;;1999.90;999.90;;;19.80;99.90;;;;;;5031111;28;20026;-69
2023/04/06 08:28:34;;;;;;;1999.90;999.90;;;19.80;99.90;;;;;;5025007;28;20037;-70
2023/04/06 08:31:05;;;;;;;1999.90;999.90;;;19.80;99.90;;;;;;5036805;28;20063;-70
2023/04/06 08:33:38;;;;;;;1999.90;999.90;;;19.70;99.90;;;;;;5029410;28;20025;-69
2023/04/06 08:36:13;;;;;;;1999.90;999.90;;;19.70;99.90;;;;;;5035746;28;20032;-70
2023/04/06 08:38:42;;;;;;;1999.90;999.90;;;19.70;99.90;;;;;;5029055;28;20021;-69
2023/04/06 08:41:14;;;;;;;1999.90;999.90;;;19.60;99.90;;;;;;5038410;28;20281;-69
2023/04/06 08:43:48;;;;;;;1999.90;999.90;;;19.60;99.90;;;;;;5033345;28;20029;-69
2023/04/06 08:46:16;;;;;;;1999.90;999.90;;;19.50;99.90;;;;;;5032993;28;20035;-69
2023/04/06 08:48:44;;;;;;;1999.90;999.90;;;19.40;99.90;;;;;;5031288;28;20048;-69
2023/04/06 08:51:12;;;;;;;1999.90;999.90;;;19.40;99.90;;;;;;5036530;28;20427;-69
2023/04/06 08:53:40;;;;;;;1999.90;999.90;;;19.30;99.90;;;;;;5032613;28;20052;-69
2023/04/06 08:56:10;;;;;;;1999.90;999.90;;;19.20;99.90;;;;;;5036134;28;20067;-68
2023/04/06 08:58:40;;;;;;;1999.90;999.90;;;19.20;99.90;;;;;;5020605;28;20045;-68
2023/04/06 09:01:11;;;;;;;1999.90;999.90;;;19.00;99.90;;;;;;5035196;28;20037;-67
2023/04/06 09:03:40;;;;;;;1999.90;999.90;;;19.00;99.90;;;;;;5032861;28;20053;-67
2023/04/06 09:06:09;;;;;;;1999.90;999.90;;;18.90;99.90;;;;;;5036979;28;20056;-68
2023/04/06 09:08:38;;;;;;;1999.90;999.90;;;18.90;99.90;;;;;;5027961;28;20053;-68
2023/04/06 09:11:06;;;;;;;1999.90;999.90;;;18.80;99.90;;;;;;5035214;28;20517;-67
2023/04/06 09:13:46;;;;;;;1999.90;999.90;;;18.80;99.90;;;;;;5029272;28;20111;-68
2023/04/06 09:16:14;;;;;;;1999.90;999.90;;;18.80;99.90;;;;;;5029843;28;20026;-68
2023/04/06 09:18:41;;;;;;;1999.90;999.90;;;18.60;99.90;;;;;;5030062;28;20036;-68
2023/04/06 09:21:10;;;;;;;1999.90;999.90;;;18.60;99.90;;;;;;5033965;28;20036;-67
2023/04/06 09:23:38;;;;;;;1999.90;999.90;;;18.50;99.90;;;;;;5022885;28;20037;-69
2023/04/06 09:26:10;;;;;;;1999.90;999.90;;;18.50;99.90;;;;;;5035003;28;20132;-69
2023/04/06 09:28:49;;;;;;;1999.90;999.90;;;18.40;99.90;;;;;;5033578;28;20021;-70
2023/04/06 09:31:28;;;;;;;1999.90;999.90;;;18.30;99.90;;;;;;5031859;28;20036;-70
2023/04/06 09:33:57;;;;;;;1999.90;999.90;;;18.20;99.90;;;;;;5030839;28;20025;-69
2023/04/06 09:36:41;;;;;;;1999.90;999.90;;;18.10;99.90;;;;;;5031057;28;20041;-68
2023/04/06 09:39:09;;;;;;;1999.90;999.90;;;18.00;99.90;;;;;;5033091;28;20032;-68
2023/04/06 09:41:36;;;;;;;1999.90;999.90;;;17.90;99.90;;;;;;5031542;28;20033;-67
2023/04/06 09:44:08;;;;;;;1999.90;999.90;;;17.80;99.90;;;;;;5033930;28;20021;-68
2023/04/06 09:46:37;;;;;;;1999.90;999.90;;;17.70;99.90;;;;;;5030467;28;20145;-68
2023/04/06 09:49:06;;;;;;;1999.90;999.90;;;17.70;99.90;;;;;;5031633;28;20037;-68
2023/04/06 09:52:04;;;;;;;1999.90;999.90;;;17.60;99.90;;;;;;5029332;28;20108;-68
2023/04/06 09:54:32;;;;;;;1999.90;999.90;;;17.50;99.90;;;;;;5034553;28;20033;-68
2023/04/06 09:57:14;;;;;;;1999.90;999.90;;;17.50;99.90;;;;;;5024997;28;20027;-69
2023/04/06 09:59:52;;;;;;;1999.90;999.90;;;17.40;99.90;;;;;;5023256;28;20116;-69
2023/04/06 10:02:52;;;;;;;1999.90;999.90;;;17.30;99.90;;;;;;5020579;28;20041;-70
2023/04/06 10:05:32;;;;;;;1999.90;999.90;;;17.30;99.90;;;;;;5018662;28;20029;-68
2023/04/06 10:08:07;;;;;;;1999.90;999.90;;;17.30;99.90;;;;;;5016798;28;20044;-68
2023/04/06 10:10:34;;;;;;;1999.90;999.90;;;17.20;99.90;;;;;;5022756;28;20099;-68
2023/04/06 10:13:04;;;;;;;1999.90;999.90;;;17.10;99.90;;;;;;5019857;28;20057;-68
2023/04/06 10:15:32;;;;;;;1999.90;999.90;;;17.00;99.90;;;;;;5020147;28;20028;-68
2023/04/06 10:18:01;;;;;;;1999.90;999.90;;;17.00;99.90;;;;;;5021187;28;20249;-68
2023/04/06 10:20:40;;;;;;;1999.90;999.90;;;17.00;99.90;;;;;;5019472;28;20377;-67
2023/04/06 10:23:14;;;;;;;1999.90;999.90;;;16.90;99.90;;;;;;5023493;28;20086;-68
2023/04/06 10:25:52;;;;;;;1999.90;999.90;;;16.80;99.90;;;;;;5020926;28;20021;-68
2023/04/06 10:28:20;;;;;;;1999.90;999.90;;;16.80;99.90;;;;;;5013746;28;20063;-68
2023/04/06 10:30:48;;;;;;;1999.90;999.90;;;16.80;99.90;;;;;;5020493;28;20103;-69
2023/04/06 10:33:20;;;;;;;1999.90;999.90;;;16.70;99.90;;;;;;5020681;28;20036;-69
2023/04/06 10:35:48;;;;;;;1999.90;999.90;;;16.70;99.90;;;;;;5019648;28;20060;-69
2023/04/06 10:38:19;;;;;;;1999.90;999.90;;;16.70;99.90;;;;;;5020052;28;20041;-69
2023/04/06 10:40:47;;;;;;;1999.90;999.90;;;16.60;99.90;;;;;;5022931;28;20052;-69
2023/04/06 10:43:20;;;;;;;1999.90;999.90;;;16.50;99.90;;;;;;5022928;28;20018;-69
2023/04/06 10:45:58;;;;;;;1999.90;999.90;;;16.50;99.90;;;;;;5033425;28;20029;-69
2023/04/06 10:48:26;;;;;;;1999.90;999.90;;;16.40;99.90;;;;;;5026156;28;20033;-70
2023/04/06 10:50:55;;;;;;;1999.90;999.90;;;16.40;99.90;;;;;;5032023;28;20484;-70
2023/04/06 10:53:27;;;;;;;1999.90;999.90;;;16.40;99.90;;;;;;5031651;28;20061;-69
2023/04/06 10:55:57;;;;;;;1999.90;999.90;;;16.30;99.90;;;;;;5035344;28;20024;-68
2023/04/06 10:58:28;;;;;;;1999.90;999.90;;;16.20;99.90;;;;;;5033657;28;20109;-69
2023/04/06 11:00:56;;;;;;;1999.90;999.90;;;16.20;99.90;;;;;;5036398;28;20159;-69
2023/04/06 11:03:23;;;;;;;1999.90;999.90;;;16.20;99.90;;;;;;5030842;28;20025;-69
2023/04/06 11:05:52;;;;;;;1999.90;999.90;;;16.20;99.90;;;;;;5037066;28;20040;-69
2023/04/06 11:08:34;;;;;;;1999.90;999.90;;;16.10;99.90;;;;;;5033905;28;20037;-69
2023/04/06 11:11:15;;;;;;;1999.90;999.90;;;16.10;99.90;;;;;;5035047;28;20476;-69
2023/04/06 11:14:00;;;;;;;1999.90;999.90;;;16.00;99.90;;;;;;5033179;28;20037;-70
2023/04/06 11:16:33;;;;;;;1999.90;999.90;;;16.00;99.90;;;;;;5031318;28;20471;-70
2023/04/06 11:19:03;;;;;;;1999.90;999.90;;;15.90;99.90;;;;;;5027041;28;20034;-69
2023/04/06 11:21:39;;;;;;;1999.90;999.90;;;15.90;99.90;;;;;;5035096;28;20033;-69
2023/04/06 11:24:15;;;;;;;1999.90;999.90;;;15.90;99.90;;;;;;5034343;28;20030;-69
2023/04/06 11:26:51;;;;;;;1999.90;999.90;;;15.90;99.90;;;;;;5031595;28;20033;-69
2023/04/06 11:29:18;;;;;;;;;;;15.90;99.90;;;;;;5034113;28;20104;-69
2023/04/06 11:32:12;;;;;;;1999.90;999.90;;;15.90;99.90;;;;;;5028820;28;19928;-70
2023/04/06 11:34:40;;;;;;;1999.90;999.90;;;15.90;99.90;;;;;;5029242;28;20038;-69
2023/04/06 11:37:12;;;;;;;1999.90;999.90;;;15.80;99.90;;;;;;5027453;28;20553;-70
2023/04/06 11:39:59;;;;;;;1999.90;999.90;;;15.80;99.90;;;;;;5026658;28;20040;-70
2023/04/06 11:42:30;;;;;;;1999.90;999.90;;;15.90;99.90;;;;;;5025090;28;20411;-70
2023/04/06 11:44:59;;;;;;;1999.90;999.90;;;15.80;99.90;;;;;;5026279;28;20036;-69
2023/04/06 11:47:31;;;;;;;1999.90;999.90;;;15.80;99.90;;;;;;5024496;28;20054;-68
2023/04/06 11:50:13;;;;;;;1999.90;999.90;;;15.80;99.90;;;;;;5031458;28;20038;-70
2023/04/06 11:52:42;;;;;;;1999.90;999.90;;;15.70;99.90;;;;;;5026750;28;20038;-69
2023/04/06 11:55:17;;;;;;;1999.90;999.90;;;15.70;99.90;;;;;;5028099;28;20029;-69
2023/04/06 11:57:45;;;;;;;1999.90;999.90;;;15.70;99.90;;;;;;5019288;28;20025;-71
2023/04/06 12:00:13;;;;;;;1999.90;999.90;;;15.70;99.90;;;;;;5026793;28;20112;-69
2023/04/06 12:02:45;;;;;;;1999.90;999.90;;;15.60;99.90;;;;;;5026694;28;20503;-69
2023/04/06 12:05:13;;;;;;;1999.90;999.90;;;15.60;99.90;;;;;;5024469;28;20064;-69
2023/04/06 12:07:40;;;;;;;1999.90;999.90;;;15.60;99.90;;;;;;5027991;28;20037;-70